sensor_id;sensor_type;location;lat;lon;timestamp;temperature;humidity
12115;DHT22;6121;49.810;6.418;2023-10-31T00:01:07;12.00;99.90
12115;DHT22;6121;49.810;6.418;2023-10-31T00:03:32;12.10;99.90
12115;DHT22;6121;49.810;6.418;2023-10-31T00:05:58;12.00;99.90
12115;DHT22;6121;49.810;6.418;2023-10-31T00:08:24;12.00;99.90
12115;DHT22;6121;49.810;6.418;2023-10-31T00:10:50;12.00;99.90
12115;DHT22;6121;49.810;6.418;2023-10-31T00:13:16;11.90;99.90
12115;DHT22;6121;49.810;6.418;2023-10-31T00:15:41;11.90;99.90
12115;DHT22;6121;49.810;6.418;2023-10-31T00:18:07;12.10;99.90
12115;DHT22;6121;49.810;6.418;2023-10-31T00:20:33;12.00;99.90
12115;DHT22;6121;49.810;6.418;2023-10-31T00:22:59;12.10;99.90
12115;DHT22;6121;49.810;6.418;2023-10-31T00:25:25;11.80;99.90
12115;DHT22;6121;49.810;6.418;2023-10-31T00:27:50;11.80;99.90
12115;DHT22;6121;49.810;6.418;2023-10-31T00:30:16;11.90;99.90
12115;DHT22;6121;49.810;6.418;2023-10-31T00:32:42;11.80;99.90
12115;DHT22;6121;49.810;6.418;2023-10-31T00:35:08;11.80;99.90
12115;DHT22;6121;49.810;6.418;2023-10-31T00:37:34;11.80;99.90
12115;DHT22;6121;49.810;6.418;2023-10-31T00:40:00;11.80;99.90
12115;DHT22;6121;49.810;6.418;2023-10-31T00:42:26;11.90;99.90
12115;DHT22;6121;49.810;6.418;2023-10-31T00:44:52;11.70;99.90
12115;DHT22;6121;49.810;6.418;2023-10-31T00:47:18;11.60;99.90
12115;DHT22;6121;49.810;6.418;2023-10-31T00:49:43;11.60;99.90
12115;DHT22;6121;49.810;6.418;2023-10-31T00:52:09;11.70;99.90
12115;DHT22;6121;49.810;6.418;2023-10-31T00:54:35;11.70;99.90
12115;DHT22;6121;49.810;6.418;2023-10-31T00:57:02;11.90;99.90
12115;DHT22;6121;49.810;6.418;2023-10-31T00:59:27;11.70;99.90
12115;DHT22;6121;49.810;6.418;2023-10-31T01:01:54;11.60;99.90
12115;DHT22;6121;49.810;6.418;2023-10-31T01:04:20;11.60;99.90
12115;DHT22;6121;49.810;6.418;2023-10-31T01:06:46;11.60;99.90
12115;DHT22;6121;49.810;6.418;2023-10-31T01:09:12;11.60;99.90
12115;DHT22;6121;49.810;6.418;2023-10-31T01:11:39;11.50;99.90
12115;DHT22;6121;49.810;6.418;2023-10-31T01:14:04;11.50;99.90
12115;DHT22;6121;49.810;6.418;2023-10-31T01:16:30;11.50;99.90
12115;DHT22;6121;49.810;6.418;2023-10-31T01:18:56;11.50;99.90
12115;DHT22;6121;49.810;6.418;2023-10-31T01:21:22;11.50;99.90
12115;DHT22;6121;49.810;6.418;2023-10-31T01:23:47;11.50;99.90
12115;DHT22;6121;49.810;6.418;2023-10-31T01:26:15;11.50;99.90
12115;DHT22;6121;49.810;6.418;2023-10-31T01:28:40;11.30;99.90
12115;DHT22;6121;49.810;6.418;2023-10-31T01:31:06;11.30;99.90
12115;DHT22;6121;49.810;6.418;2023-10-31T01:33:32;11.50;99.90
12115;DHT22;6121;49.810;6.418;2023-10-31T01:35:58;11.60;99.90
12115;DHT22;6121;49.810;6.418;2023-10-31T01:38:24;11.60;99.90
12115;DHT22;6121;49.810;6.418;2023-10-31T01:40:50;11.50;99.90
12115;DHT22;6121;49.810;6.418;2023-10-31T01:43:36;11.80;99.90
12115;DHT22;6121;49.810;6.418;2023-10-31T01:46:02;11.50;99.90
12115;DHT22;6121;49.810;6.418;2023-10-31T01:48:30;11.50;99.90
12115;DHT22;6121;49.810;6.418;2023-10-31T01:50:59;11.60;99.90
12115;DHT22;6121;49.810;6.418;2023-10-31T01:53:25;11.50;99.90
12115;DHT22;6121;49.810;6.418;2023-10-31T01:55:52;11.50;99.90
12115;DHT22;6121;49.810;6.418;2023-10-31T01:58:21;11.40;99.90
12115;DHT22;6121;49.810;6.418;2023-10-31T02:00:49;11.50;99.90
12115;DHT22;6121;49.810;6.418;2023-10-31T02:03:16;11.50;99.90
12115;DHT22;6121;49.810;6.418;2023-10-31T02:05:42;11.50;99.90
12115;DHT22;6121;49.810;6.418;2023-10-31T02:08:09;11.40;99.90
12115;DHT22;6121;49.810;6.418;2023-10-31T02:10:35;11.40;99.90
12115;DHT22;6121;49.810;6.418;2023-10-31T02:13:11;11.50;99.90
12115;DHT22;6121;49.810;6.418;2023-10-31T02:15:37;11.50;99.90
12115;DHT22;6121;49.810;6.418;2023-10-31T02:18:03;11.60;99.90
12115;DHT22;6121;49.810;6.418;2023-10-31T02:20:29;11.50;99.90
12115;DHT22;6121;49.810;6.418;2023-10-31T02:22:55;11.50;99.90
12115;DHT22;6121;49.810;6.418;2023-10-31T02:25:21;11.50;99.90
12115;DHT22;6121;49.810;6.418;2023-10-31T02:27:47;11.50;99.90
12115;DHT22;6121;49.810;6.418;2023-10-31T02:30:13;11.50;99.90
12115;DHT22;6121;49.810;6.418;2023-10-31T02:32:40;11.50;99.90
12115;DHT22;6121;49.810;6.418;2023-10-31T02:35:07;11.50;99.90
12115;DHT22;6121;49.810;6.418;2023-10-31T02:37:33;11.60;99.90
12115;DHT22;6121;49.810;6.418;2023-10-31T02:39:58;11.50;99.90
12115;DHT22;6121;49.810;6.418;2023-10-31T02:42:25;11.40;99.90
12115;DHT22;6121;49.810;6.418;2023-10-31T02:44:51;11.40;99.90
12115;DHT22;6121;49.810;6.418;2023-10-31T02:47:17;11.50;99.90
12115;DHT22;6121;49.810;6.418;2023-10-31T02:49:43;11.50;99.90
12115;DHT22;6121;49.810;6.418;2023-10-31T02:52:09;11.30;99.90
12115;DHT22;6121;49.810;6.418;2023-10-31T02:54:35;11.30;99.90
12115;DHT22;6121;49.810;6.418;2023-10-31T02:57:01;11.30;99.90
12115;DHT22;6121;49.810;6.418;2023-10-31T02:59:26;11.30;99.90
12115;DHT22;6121;49.810;6.418;2023-10-31T03:01:53;11.30;99.90
12115;DHT22;6121;49.810;6.418;2023-10-31T03:04:19;11.40;99.90
12115;DHT22;6121;49.810;6.418;2023-10-31T03:06:44;11.30;99.90
12115;DHT22;6121;49.810;6.418;2023-10-31T03:09:10;11.50;99.90
12115;DHT22;6121;49.810;6.418;2023-10-31T03:11:36;11.90;99.90
12115;DHT22;6121;49.810;6.418;2023-10-31T03:14:02;11.10;99.90
12115;DHT22;6121;49.810;6.418;2023-10-31T03:16:28;11.40;99.90
12115;DHT22;6121;49.810;6.418;2023-10-31T03:18:54;11.40;99.90
12115;DHT22;6121;49.810;6.418;2023-10-31T03:21:19;11.30;99.90
12115;DHT22;6121;49.810;6.418;2023-10-31T03:23:49;11.30;99.90
12115;DHT22;6121;49.810;6.418;2023-10-31T03:26:19;11.40;99.90
12115;DHT22;6121;49.810;6.418;2023-10-31T03:28:45;11.20;99.90
12115;DHT22;6121;49.810;6.418;2023-10-31T03:31:12;11.50;99.90
12115;DHT22;6121;49.810;6.418;2023-10-31T03:33:39;11.30;99.90
12115;DHT22;6121;49.810;6.418;2023-10-31T03:36:05;11.30;99.90
12115;DHT22;6121;49.810;6.418;2023-10-31T03:38:36;11.30;99.90
12115;DHT22;6121;49.810;6.418;2023-10-31T03:41:03;11.30;99.90
12115;DHT22;6121;49.810;6.418;2023-10-31T03:43:29;11.40;99.90
12115;DHT22;6121;49.810;6.418;2023-10-31T03:45:55;11.00;99.90
12115;DHT22;6121;49.810;6.418;2023-10-31T03:48:21;11.20;99.90
12115;DHT22;6121;49.810;6.418;2023-10-31T03:50:47;11.20;99.90
12115;DHT22;6121;49.810;6.418;2023-10-31T03:53:13;11.20;99.90
12115;DHT22;6121;49.810;6.418;2023-10-31T03:55:39;11.20;99.90
12115;DHT22;6121;49.810;6.418;2023-10-31T03:58:04;11.20;99.90
12115;DHT22;6121;49.810;6.418;2023-10-31T04:00:31;11.20;99.90
12115;DHT22;6121;49.810;6.418;2023-10-31T04:02:57;11.20;99.90
12115;DHT22;6121;49.810;6.418;2023-10-31T04:05:23;11.60;99.90
12115;DHT22;6121;49.810;6.418;2023-10-31T04:07:49;11.20;99.90
12115;DHT22;6121;49.810;6.418;2023-10-31T04:10:15;11.10;99.90
12115;DHT22;6121;49.810;6.418;2023-10-31T04:12:42;11.30;99.90
12115;DHT22;6121;49.810;6.418;2023-10-31T04:15:08;11.20;99.90
12115;DHT22;6121;49.810;6.418;2023-10-31T04:17:34;11.30;99.90
12115;DHT22;6121;49.810;6.418;2023-10-31T04:20:01;11.20;99.90
12115;DHT22;6121;49.810;6.418;2023-10-31T04:22:27;11.20;99.90
12115;DHT22;6121;49.810;6.418;2023-10-31T04:24:52;11.20;99.90
12115;DHT22;6121;49.810;6.418;2023-10-31T04:27:18;11.20;99.90
12115;DHT22;6121;49.810;6.418;2023-10-31T04:29:44;11.10;99.90
12115;DHT22;6121;49.810;6.418;2023-10-31T04:32:10;11.10;99.90
12115;DHT22;6121;49.810;6.418;2023-10-31T04:34:36;11.20;99.90
12115;DHT22;6121;49.810;6.418;2023-10-31T04:37:02;11.20;99.90
12115;DHT22;6121;49.810;6.418;2023-10-31T04:39:28;11.00;99.90
12115;DHT22;6121;49.810;6.418;2023-10-31T04:41:53;11.10;99.90
12115;DHT22;6121;49.810;6.418;2023-10-31T04:44:19;11.10;99.90
12115;DHT22;6121;49.810;6.418;2023-10-31T04:46:45;11.00;99.90
12115;DHT22;6121;49.810;6.418;2023-10-31T04:49:11;11.00;99.90
12115;DHT22;6121;49.810;6.418;2023-10-31T04:51:37;11.10;99.90
12115;DHT22;6121;49.810;6.418;2023-10-31T04:54:04;11.00;99.90
12115;DHT22;6121;49.810;6.418;2023-10-31T04:56:30;11.10;99.90
12115;DHT22;6121;49.810;6.418;2023-10-31T04:58:56;10.90;99.90
12115;DHT22;6121;49.810;6.418;2023-10-31T05:01:22;10.80;99.90
12115;DHT22;6121;49.810;6.418;2023-10-31T05:03:48;10.90;99.90
12115;DHT22;6121;49.810;6.418;2023-10-31T05:06:22;11.00;99.90
12115;DHT22;6121;49.810;6.418;2023-10-31T05:08:48;10.90;99.90
12115;DHT22;6121;49.810;6.418;2023-10-31T05:11:18;10.90;99.90
12115;DHT22;6121;49.810;6.418;2023-10-31T05:13:47;10.90;99.90
12115;DHT22;6121;49.810;6.418;2023-10-31T05:16:13;11.00;99.90
12115;DHT22;6121;49.810;6.418;2023-10-31T05:18:39;10.90;99.90
12115;DHT22;6121;49.810;6.418;2023-10-31T05:21:05;11.40;99.90
12115;DHT22;6121;49.810;6.418;2023-10-31T05:23:31;11.00;99.90
12115;DHT22;6121;49.810;6.418;2023-10-31T05:25:57;10.90;99.90
12115;DHT22;6121;49.810;6.418;2023-10-31T05:28:23;11.00;99.90
12115;DHT22;6121;49.810;6.418;2023-10-31T05:30:49;11.00;99.90
12115;DHT22;6121;49.810;6.418;2023-10-31T05:33:15;10.90;99.90
12115;DHT22;6121;49.810;6.418;2023-10-31T05:35:42;10.90;99.90
12115;DHT22;6121;49.810;6.418;2023-10-31T05:38:08;11.00;99.90
12115;DHT22;6121;49.810;6.418;2023-10-31T05:40:33;10.60;99.90
12115;DHT22;6121;49.810;6.418;2023-10-31T05:43:04;10.90;99.90
12115;DHT22;6121;49.810;6.418;2023-10-31T05:45:30;11.00;99.90
12115;DHT22;6121;49.810;6.418;2023-10-31T05:47:56;10.90;99.90
12115;DHT22;6121;49.810;6.418;2023-10-31T05:50:22;10.70;99.90
12115;DHT22;6121;49.810;6.418;2023-10-31T05:52:48;11.20;99.90
12115;DHT22;6121;49.810;6.418;2023-10-31T05:55:14;11.00;99.90
12115;DHT22;6121;49.810;6.418;2023-10-31T05:57:40;11.10;99.90
12115;DHT22;6121;49.810;6.418;2023-10-31T06:00:07;11.00;99.90
12115;DHT22;6121;49.810;6.418;2023-10-31T06:02:37;11.10;99.90
12115;DHT22;6121;49.810;6.418;2023-10-31T06:05:04;10.90;99.90
12115;DHT22;6121;49.810;6.418;2023-10-31T06:07:30;11.10;99.90
12115;DHT22;6121;49.810;6.418;2023-10-31T06:09:56;10.90;99.90
12115;DHT22;6121;49.810;6.418;2023-10-31T06:12:21;10.90;99.90
12115;DHT22;6121;49.810;6.418;2023-10-31T06:14:47;10.90;99.90
12115;DHT22;6121;49.810;6.418;2023-10-31T06:17:13;10.90;99.90
12115;DHT22;6121;49.810;6.418;2023-10-31T06:19:39;10.80;99.90
12115;DHT22;6121;49.810;6.418;2023-10-31T06:22:11;11.00;99.90
12115;DHT22;6121;49.810;6.418;2023-10-31T06:24:37;11.00;99.90
12115;DHT22;6121;49.810;6.418;2023-10-31T06:27:03;11.00;99.90
12115;DHT22;6121;49.810;6.418;2023-10-31T06:29:28;11.00;99.90
12115;DHT22;6121;49.810;6.418;2023-10-31T06:31:54;10.90;99.90
12115;DHT22;6121;49.810;6.418;2023-10-31T06:34:20;10.90;99.90
12115;DHT22;6121;49.810;6.418;2023-10-31T06:36:46;10.60;99.90
12115;DHT22;6121;49.810;6.418;2023-10-31T06:39:12;11.00;99.90
12115;DHT22;6121;49.810;6.418;2023-10-31T06:41:37;10.90;99.90
12115;DHT22;6121;49.810;6.418;2023-10-31T06:44:03;11.00;99.90
12115;DHT22;6121;49.810;6.418;2023-10-31T06:46:29;11.00;99.90
12115;DHT22;6121;49.810;6.418;2023-10-31T06:48:55;10.90;99.90
12115;DHT22;6121;49.810;6.418;2023-10-31T06:51:21;11.00;99.90
12115;DHT22;6121;49.810;6.418;2023-10-31T06:53:46;11.10;99.90
12115;DHT22;6121;49.810;6.418;2023-10-31T06:56:12;11.10;99.90
12115;DHT22;6121;49.810;6.418;2023-10-31T06:58:38;10.60;99.90
12115;DHT22;6121;49.810;6.418;2023-10-31T07:01:04;11.00;99.90
12115;DHT22;6121;49.810;6.418;2023-10-31T07:03:29;11.00;99.90
12115;DHT22;6121;49.810;6.418;2023-10-31T07:05:55;10.90;99.90
12115;DHT22;6121;49.810;6.418;2023-10-31T07:08:22;11.10;99.90
12115;DHT22;6121;49.810;6.418;2023-10-31T07:10:48;11.10;99.90
12115;DHT22;6121;49.810;6.418;2023-10-31T07:13:14;11.00;99.90
12115;DHT22;6121;49.810;6.418;2023-10-31T07:15:40;11.00;99.90
12115;DHT22;6121;49.810;6.418;2023-10-31T07:18:06;11.60;99.90
12115;DHT22;6121;49.810;6.418;2023-10-31T07:20:33;11.10;99.90
12115;DHT22;6121;49.810;6.418;2023-10-31T07:22:59;11.30;99.90
12115;DHT22;6121;49.810;6.418;2023-10-31T07:25:25;11.10;99.90
12115;DHT22;6121;49.810;6.418;2023-10-31T07:27:50;11.00;99.90
12115;DHT22;6121;49.810;6.418;2023-10-31T07:30:16;11.10;99.90
12115;DHT22;6121;49.810;6.418;2023-10-31T07:32:42;11.20;99.90
12115;DHT22;6121;49.810;6.418;2023-10-31T07:35:08;11.50;99.90
12115;DHT22;6121;49.810;6.418;2023-10-31T07:37:34;11.20;99.90
12115;DHT22;6121;49.810;6.418;2023-10-31T07:39:59;11.20;99.90
12115;DHT22;6121;49.810;6.418;2023-10-31T07:42:25;11.20;99.90
12115;DHT22;6121;49.810;6.418;2023-10-31T07:44:51;11.30;99.90
12115;DHT22;6121;49.810;6.418;2023-10-31T07:47:17;11.20;99.90
12115;DHT22;6121;49.810;6.418;2023-10-31T07:49:43;11.40;99.90
12115;DHT22;6121;49.810;6.418;2023-10-31T07:52:09;11.70;99.90
12115;DHT22;6121;49.810;6.418;2023-10-31T07:54:35;11.50;99.90
12115;DHT22;6121;49.810;6.418;2023-10-31T07:57:04;11.60;99.90
12115;DHT22;6121;49.810;6.418;2023-10-31T07:59:33;11.70;99.90
12115;DHT22;6121;49.810;6.418;2023-10-31T08:01:59;11.90;99.90
12115;DHT22;6121;49.810;6.418;2023-10-31T08:04:25;11.80;99.90
12115;DHT22;6121;49.810;6.418;2023-10-31T08:06:50;12.10;99.90
12115;DHT22;6121;49.810;6.418;2023-10-31T08:09:16;12.00;99.90
12115;DHT22;6121;49.810;6.418;2023-10-31T08:11:42;12.20;99.90
12115;DHT22;6121;49.810;6.418;2023-10-31T08:14:08;12.20;99.90
12115;DHT22;6121;49.810;6.418;2023-10-31T08:16:34;12.20;99.90
12115;DHT22;6121;49.810;6.418;2023-10-31T08:19:00;12.90;99.90
12115;DHT22;6121;49.810;6.418;2023-10-31T08:21:26;13.70;99.90
12115;DHT22;6121;49.810;6.418;2023-10-31T08:23:54;13.20;99.90
12115;DHT22;6121;49.810;6.418;2023-10-31T08:26:20;13.10;99.90
12115;DHT22;6121;49.810;6.418;2023-10-31T08:28:46;13.10;99.90
12115;DHT22;6121;49.810;6.418;2023-10-31T08:31:11;13.30;99.90
12115;DHT22;6121;49.810;6.418;2023-10-31T08:33:37;13.30;99.90
12115;DHT22;6121;49.810;6.418;2023-10-31T08:36:03;13.30;99.90
12115;DHT22;6121;49.810;6.418;2023-10-31T08:38:29;13.40;99.90
12115;DHT22;6121;49.810;6.418;2023-10-31T08:40:56;13.40;99.90
12115;DHT22;6121;49.810;6.418;2023-10-31T08:43:21;14.00;99.90
12115;DHT22;6121;49.810;6.418;2023-10-31T08:45:47;15.00;99.90
12115;DHT22;6121;49.810;6.418;2023-10-31T08:48:13;15.50;99.90
12115;DHT22;6121;49.810;6.418;2023-10-31T08:50:41;14.70;99.90
12115;DHT22;6121;49.810;6.418;2023-10-31T08:53:07;14.20;99.90
12115;DHT22;6121;49.810;6.418;2023-10-31T08:55:33;14.00;99.90
12115;DHT22;6121;49.810;6.418;2023-10-31T08:57:58;14.10;99.90
12115;DHT22;6121;49.810;6.418;2023-10-31T09:00:24;13.80;99.90
12115;DHT22;6121;49.810;6.418;2023-10-31T09:02:50;13.70;99.90
12115;DHT22;6121;49.810;6.418;2023-10-31T09:05:16;13.70;99.90
12115;DHT22;6121;49.810;6.418;2023-10-31T09:07:41;13.70;99.90
12115;DHT22;6121;49.810;6.418;2023-10-31T09:10:07;13.70;99.90
12115;DHT22;6121;49.810;6.418;2023-10-31T09:12:33;13.80;99.90
12115;DHT22;6121;49.810;6.418;2023-10-31T09:15:00;14.10;99.90
12115;DHT22;6121;49.810;6.418;2023-10-31T09:17:25;14.60;99.90
12115;DHT22;6121;49.810;6.418;2023-10-31T09:19:51;14.60;99.90
12115;DHT22;6121;49.810;6.418;2023-10-31T09:22:17;15.80;99.90
12115;DHT22;6121;49.810;6.418;2023-10-31T09:24:43;17.80;99.90
12115;DHT22;6121;49.810;6.418;2023-10-31T09:27:10;21.50;99.90
12115;DHT22;6121;49.810;6.418;2023-10-31T09:29:35;23.10;99.90
12115;DHT22;6121;49.810;6.418;2023-10-31T09:32:02;22.60;99.90
12115;DHT22;6121;49.810;6.418;2023-10-31T09:34:29;22.50;99.90
12115;DHT22;6121;49.810;6.418;2023-10-31T09:36:54;23.90;99.90
12115;DHT22;6121;49.810;6.418;2023-10-31T09:39:21;23.60;99.90
12115;DHT22;6121;49.810;6.418;2023-10-31T09:41:48;23.20;99.90
12115;DHT22;6121;49.810;6.418;2023-10-31T09:44:14;20.80;99.90
12115;DHT22;6121;49.810;6.418;2023-10-31T09:46:40;20.60;99.90
12115;DHT22;6121;49.810;6.418;2023-10-31T09:49:07;21.80;99.90
12115;DHT22;6121;49.810;6.418;2023-10-31T09:51:34;20.60;99.90
12115;DHT22;6121;49.810;6.418;2023-10-31T09:54:02;18.80;99.90
12115;DHT22;6121;49.810;6.418;2023-10-31T09:56:29;18.00;99.90
12115;DHT22;6121;49.810;6.418;2023-10-31T09:59:00;17.30;99.90
12115;DHT22;6121;49.810;6.418;2023-10-31T10:01:27;17.30;99.90
12115;DHT22;6121;49.810;6.418;2023-10-31T10:03:54;16.90;99.90
12115;DHT22;6121;49.810;6.418;2023-10-31T10:06:21;16.30;99.90
12115;DHT22;6121;49.810;6.418;2023-10-31T10:08:49;16.40;99.90
12115;DHT22;6121;49.810;6.418;2023-10-31T10:11:15;16.60;99.90
12115;DHT22;6121;49.810;6.418;2023-10-31T10:13:41;17.90;99.90
12115;DHT22;6121;49.810;6.418;2023-10-31T10:16:07;18.30;99.90
12115;DHT22;6121;49.810;6.418;2023-10-31T10:18:34;18.00;99.90
12115;DHT22;6121;49.810;6.418;2023-10-31T10:21:05;18.30;99.90
12115;DHT22;6121;49.810;6.418;2023-10-31T10:23:32;19.00;99.90
12115;DHT22;6121;49.810;6.418;2023-10-31T10:25:59;18.50;99.90
12115;DHT22;6121;49.810;6.418;2023-10-31T10:28:25;18.00;99.90
12115;DHT22;6121;49.810;6.418;2023-10-31T10:30:53;17.40;99.90
12115;DHT22;6121;49.810;6.418;2023-10-31T10:33:20;17.80;99.90
12115;DHT22;6121;49.810;6.418;2023-10-31T10:35:46;17.70;99.90
12115;DHT22;6121;49.810;6.418;2023-10-31T10:38:18;17.30;99.90
12115;DHT22;6121;49.810;6.418;2023-10-31T10:40:48;17.50;99.90
12115;DHT22;6121;49.810;6.418;2023-10-31T10:43:22;18.60;99.90
12115;DHT22;6121;49.810;6.418;2023-10-31T10:45:59;18.50;99.90
12115;DHT22;6121;49.810;6.418;2023-10-31T10:48:26;17.90;99.90
12115;DHT22;6121;49.810;6.418;2023-10-31T10:53:30;17.00;99.90
12115;DHT22;6121;49.810;6.418;2023-10-31T10:56:01;17.00;99.90
12115;DHT22;6121;49.810;6.418;2023-10-31T10:58:49;16.80;99.90
12115;DHT22;6121;49.810;6.418;2023-10-31T11:01:16;16.60;99.90
12115;DHT22;6121;49.810;6.418;2023-10-31T11:03:45;16.50;99.90
12115;DHT22;6121;49.810;6.418;2023-10-31T11:06:12;16.30;99.90
12115;DHT22;6121;49.810;6.418;2023-10-31T11:08:39;16.50;99.90
12115;DHT22;6121;49.810;6.418;2023-10-31T11:11:06;16.60;99.90
12115;DHT22;6121;49.810;6.418;2023-10-31T11:13:32;16.40;99.90
12115;DHT22;6121;49.810;6.418;2023-10-31T11:16:04;16.30;99.90
12115;DHT22;6121;49.810;6.418;2023-10-31T11:18:32;16.30;99.90
12115;DHT22;6121;49.810;6.418;2023-10-31T11:20:58;16.70;99.90
12115;DHT22;6121;49.810;6.418;2023-10-31T11:23:24;16.70;99.90
12115;DHT22;6121;49.810;6.418;2023-10-31T11:25:50;16.50;99.90
12115;DHT22;6121;49.810;6.418;2023-10-31T11:28:19;16.50;99.90
12115;DHT22;6121;49.810;6.418;2023-10-31T11:30:49;16.50;99.90
12115;DHT22;6121;49.810;6.418;2023-10-31T11:33:22;16.50;99.90
12115;DHT22;6121;49.810;6.418;2023-10-31T11:36:03;16.70;99.90
12115;DHT22;6121;49.810;6.418;2023-10-31T11:38:35;16.40;99.90
12115;DHT22;6121;49.810;6.418;2023-10-31T11:41:02;16.20;99.90
12115;DHT22;6121;49.810;6.418;2023-10-31T11:46:17;16.00;99.90
12115;DHT22;6121;49.810;6.418;2023-10-31T11:48:51;15.80;99.90
12115;DHT22;6121;49.810;6.418;2023-10-31T11:51:17;15.80;99.90
12115;DHT22;6121;49.810;6.418;2023-10-31T11:53:44;15.80;99.90
12115;DHT22;6121;49.810;6.418;2023-10-31T11:56:21;16.00;99.90
12115;DHT22;6121;49.810;6.418;2023-10-31T11:59:02;15.70;99.90
12115;DHT22;6121;49.810;6.418;2023-10-31T12:01:29;15.60;99.90
12115;DHT22;6121;49.810;6.418;2023-10-31T12:03:54;15.40;99.90
12115;DHT22;6121;49.810;6.418;2023-10-31T12:06:20;15.60;99.90
12115;DHT22;6121;49.810;6.418;2023-10-31T12:08:49;15.80;99.90
12115;DHT22;6121;49.810;6.418;2023-10-31T12:11:21;15.80;99.90
12115;DHT22;6121;49.810;6.418;2023-10-31T12:13:58;16.00;99.90
12115;DHT22;6121;49.810;6.418;2023-10-31T12:16:33;16.40;99.90
12115;DHT22;6121;49.810;6.418;2023-10-31T12:19:01;16.10;99.90
12115;DHT22;6121;49.810;6.418;2023-10-31T12:21:35;16.20;99.90
12115;DHT22;6121;49.810;6.418;2023-10-31T12:24:08;16.20;99.90
12115;DHT22;6121;49.810;6.418;2023-10-31T12:26:35;16.30;99.90
12115;DHT22;6121;49.810;6.418;2023-10-31T12:29:16;16.50;99.90
12115;DHT22;6121;49.810;6.418;2023-10-31T12:31:53;16.60;99.90
12115;DHT22;6121;49.810;6.418;2023-10-31T12:34:22;16.60;99.90
12115;DHT22;6121;49.810;6.418;2023-10-31T12:36:53;16.40;99.90
12115;DHT22;6121;49.810;6.418;2023-10-31T12:39:23;16.20;99.90
12115;DHT22;6121;49.810;6.418;2023-10-31T12:41:50;16.30;99.90
12115;DHT22;6121;49.810;6.418;2023-10-31T12:44:23;16.20;99.90
12115;DHT22;6121;49.810;6.418;2023-10-31T12:46:49;16.30;99.90
12115;DHT22;6121;49.810;6.418;2023-10-31T12:49:19;16.20;99.90
12115;DHT22;6121;49.810;6.418;2023-10-31T12:52:01;16.10;99.90
12115;DHT22;6121;49.810;6.418;2023-10-31T12:54:31;16.30;99.90
12115;DHT22;6121;49.810;6.418;2023-10-31T12:57:04;16.00;99.90
12115;DHT22;6121;49.810;6.418;2023-10-31T12:59:35;15.90;99.90
12115;DHT22;6121;49.810;6.418;2023-10-31T13:02:02;15.80;99.90
12115;DHT22;6121;49.810;6.418;2023-10-31T13:04:30;15.80;99.90
12115;DHT22;6121;49.810;6.418;2023-10-31T13:06:59;15.50;99.90
12115;DHT22;6121;49.810;6.418;2023-10-31T13:09:44;15.50;99.90
12115;DHT22;6121;49.810;6.418;2023-10-31T13:12:12;15.40;99.90
12115;DHT22;6121;49.810;6.418;2023-10-31T13:14:37;15.40;99.90
12115;DHT22;6121;49.810;6.418;2023-10-31T13:17:04;15.50;99.90
12115;DHT22;6121;49.810;6.418;2023-10-31T13:19:30;15.60;99.90
12115;DHT22;6121;49.810;6.418;2023-10-31T13:21:56;15.20;99.90
12115;DHT22;6121;49.810;6.418;2023-10-31T13:24:22;15.50;99.90
12115;DHT22;6121;49.810;6.418;2023-10-31T13:26:47;15.50;99.90
12115;DHT22;6121;49.810;6.418;2023-10-31T13:29:18;15.40;99.90
12115;DHT22;6121;49.810;6.418;2023-10-31T13:31:44;15.40;99.90
12115;DHT22;6121;49.810;6.418;2023-10-31T13:34:10;15.20;99.90
12115;DHT22;6121;49.810;6.418;2023-10-31T13:36:36;15.30;99.90
12115;DHT22;6121;49.810;6.418;2023-10-31T13:39:02;15.20;99.90
12115;DHT22;6121;49.810;6.418;2023-10-31T13:41:28;15.30;99.90
12115;DHT22;6121;49.810;6.418;2023-10-31T13:43:54;15.20;99.90
12115;DHT22;6121;49.810;6.418;2023-10-31T13:46:20;15.40;99.90
12115;DHT22;6121;49.810;6.418;2023-10-31T13:48:46;15.30;99.90
12115;DHT22;6121;49.810;6.418;2023-10-31T13:51:21;15.40;99.90
12115;DHT22;6121;49.810;6.418;2023-10-31T13:53:47;15.10;99.90
12115;DHT22;6121;49.810;6.418;2023-10-31T13:56:13;15.00;99.90
12115;DHT22;6121;49.810;6.418;2023-10-31T13:58:38;15.00;99.90
12115;DHT22;6121;49.810;6.418;2023-10-31T14:01:04;15.00;99.90
12115;DHT22;6121;49.810;6.418;2023-10-31T14:03:31;15.10;99.90
12115;DHT22;6121;49.810;6.418;2023-10-31T14:05:57;15.00;99.90
12115;DHT22;6121;49.810;6.418;2023-10-31T14:08:23;15.10;99.90
12115;DHT22;6121;49.810;6.418;2023-10-31T14:10:48;15.10;99.90
12115;DHT22;6121;49.810;6.418;2023-10-31T14:13:14;15.00;99.90
12115;DHT22;6121;49.810;6.418;2023-10-31T14:15:41;15.00;99.90
12115;DHT22;6121;49.810;6.418;2023-10-31T14:18:07;15.40;99.90
12115;DHT22;6121;49.810;6.418;2023-10-31T14:20:33;15.10;99.90
12115;DHT22;6121;49.810;6.418;2023-10-31T14:22:59;15.40;99.90
12115;DHT22;6121;49.810;6.418;2023-10-31T14:25:25;15.10;99.90
12115;DHT22;6121;49.810;6.418;2023-10-31T14:27:50;15.00;99.90
12115;DHT22;6121;49.810;6.418;2023-10-31T14:30:16;15.10;99.90
12115;DHT22;6121;49.810;6.418;2023-10-31T14:32:42;15.10;99.90
12115;DHT22;6121;49.810;6.418;2023-10-31T14:35:08;15.00;99.90
12115;DHT22;6121;49.810;6.418;2023-10-31T14:37:34;14.90;99.90
12115;DHT22;6121;49.810;6.418;2023-10-31T14:40:00;14.90;99.90
12115;DHT22;6121;49.810;6.418;2023-10-31T14:42:28;14.90;99.90
12115;DHT22;6121;49.810;6.418;2023-10-31T14:44:54;14.90;99.90
12115;DHT22;6121;49.810;6.418;2023-10-31T14:47:22;14.40;99.90
12115;DHT22;6121;49.810;6.418;2023-10-31T14:49:48;14.80;99.90
12115;DHT22;6121;49.810;6.418;2023-10-31T14:52:13;14.70;99.90
12115;DHT22;6121;49.810;6.418;2023-10-31T14:54:39;14.70;99.90
12115;DHT22;6121;49.810;6.418;2023-10-31T14:57:05;14.60;99.90
12115;DHT22;6121;49.810;6.418;2023-10-31T14:59:31;14.50;99.90
12115;DHT22;6121;49.810;6.418;2023-10-31T15:01:57;14.50;99.90
12115;DHT22;6121;49.810;6.418;2023-10-31T15:04:22;14.50;99.90
12115;DHT22;6121;49.810;6.418;2023-10-31T15:06:48;14.50;99.90
12115;DHT22;6121;49.810;6.418;2023-10-31T15:09:14;14.40;99.90
12115;DHT22;6121;49.810;6.418;2023-10-31T15:11:40;14.50;99.90
12115;DHT22;6121;49.810;6.418;2023-10-31T15:14:06;14.40;99.90
12115;DHT22;6121;49.810;6.418;2023-10-31T15:16:32;14.40;99.90
12115;DHT22;6121;49.810;6.418;2023-10-31T15:18:58;14.40;99.90
12115;DHT22;6121;49.810;6.418;2023-10-31T15:21:24;14.30;99.90
12115;DHT22;6121;49.810;6.418;2023-10-31T15:23:50;14.20;99.90
12115;DHT22;6121;49.810;6.418;2023-10-31T15:26:16;14.20;99.90
12115;DHT22;6121;49.810;6.418;2023-10-31T15:28:42;14.20;99.90
12115;DHT22;6121;49.810;6.418;2023-10-31T15:31:09;14.20;99.90
12115;DHT22;6121;49.810;6.418;2023-10-31T15:33:35;14.10;99.90
12115;DHT22;6121;49.810;6.418;2023-10-31T15:36:01;14.20;99.90
12115;DHT22;6121;49.810;6.418;2023-10-31T15:38:27;14.10;99.90
12115;DHT22;6121;49.810;6.418;2023-10-31T15:40:53;14.00;99.90
12115;DHT22;6121;49.810;6.418;2023-10-31T15:43:19;13.90;99.90
12115;DHT22;6121;49.810;6.418;2023-10-31T15:45:44;14.00;99.90
12115;DHT22;6121;49.810;6.418;2023-10-31T15:48:11;13.80;99.90